Terminal Aerodrome Forecast
Issued by NWS

Home | Current Version | Previous Version | Text Only | Print | Product List | Glossary On
Versions: 1 2 3 4 5 6 7 8 9 10 11 12 13 14 15 16 17 18 19 20
776
FTPA31 PHFO 300815 AAA
TAFHTO
TAF AMD
PHTO 300815Z 3008/0106 24005KT P6SM VCSH SCT020 BKN040
      TEMPO 3008/3012 3SM SHRA BR BKN020
     FM302000 09010KT P6SM SCT030 BKN045
     FM010500 VRB03KT P6SM SCT025 BKN040=

USA.gov is the U.S. government's official web portal to all federal, state and local government web resources and services.